sensor_id;sensor_type;location;lat;lon;timestamp;P1;durP1;ratioP1;P2;durP2;ratioP2
10343;SDS011;5217;43.960;10.954;2022-07-10T00:00:18;1.15;;;0.80;;
10343;SDS011;5217;43.960;10.954;2022-07-10T00:02:49;1.52;;;1.00;;
10343;SDS011;5217;43.960;10.954;2022-07-10T00:05:19;0.98;;;0.98;;
10343;SDS011;5217;43.960;10.954;2022-07-10T00:07:49;1.13;;;1.00;;
10343;SDS011;5217;43.960;10.954;2022-07-10T00:10:19;0.80;;;0.80;;
10343;SDS011;5217;43.960;10.954;2022-07-10T00:12:48;1.48;;;1.00;;
10343;SDS011;5217;43.960;10.954;2022-07-10T00:15:18;0.85;;;0.85;;
10343;SDS011;5217;43.960;10.954;2022-07-10T00:17:47;1.13;;;0.88;;
10343;SDS011;5217;43.960;10.954;2022-07-10T00:20:17;2.50;;;0.80;;
10343;SDS011;5217;43.960;10.954;2022-07-10T00:22:46;1.55;;;0.85;;
10343;SDS011;5217;43.960;10.954;2022-07-10T00:25:14;1.45;;;0.90;;
10343;SDS011;5217;43.960;10.954;2022-07-10T00:27:42;1.00;;;1.00;;
10343;SDS011;5217;43.960;10.954;2022-07-10T00:30:11;1.08;;;0.98;;
10343;SDS011;5217;43.960;10.954;2022-07-10T00:32:40;1.55;;;1.00;;
10343;SDS011;5217;43.960;10.954;2022-07-10T00:35:10;2.33;;;0.88;;
10343;SDS011;5217;43.960;10.954;2022-07-10T00:37:38;1.10;;;1.00;;
10343;SDS011;5217;43.960;10.954;2022-07-10T00:40:07;0.80;;;0.80;;
10343;SDS011;5217;43.960;10.954;2022-07-10T00:42:36;1.05;;;0.80;;
10343;SDS011;5217;43.960;10.954;2022-07-10T00:45:04;0.70;;;0.70;;
10343;SDS011;5217;43.960;10.954;2022-07-10T00:47:34;0.80;;;0.80;;
10343;SDS011;5217;43.960;10.954;2022-07-10T00:50:03;0.80;;;0.80;;
10343;SDS011;5217;43.960;10.954;2022-07-10T00:52:35;0.93;;;0.93;;
10343;SDS011;5217;43.960;10.954;2022-07-10T00:55:06;0.90;;;0.90;;
10343;SDS011;5217;43.960;10.954;2022-07-10T00:57:37;1.10;;;0.93;;
10343;SDS011;5217;43.960;10.954;2022-07-10T01:00:06;1.00;;;0.90;;
10343;SDS011;5217;43.960;10.954;2022-07-10T01:02:36;2.72;;;1.00;;
10343;SDS011;5217;43.960;10.954;2022-07-10T01:05:08;2.40;;;0.98;;
10343;SDS011;5217;43.960;10.954;2022-07-10T01:07:38;1.25;;;0.90;;
10343;SDS011;5217;43.960;10.954;2022-07-10T01:10:07;1.10;;;1.00;;
10343;SDS011;5217;43.960;10.954;2022-07-10T01:12:37;2.38;;;0.90;;
10343;SDS011;5217;43.960;10.954;2022-07-10T01:15:06;0.90;;;0.90;;
10343;SDS011;5217;43.960;10.954;2022-07-10T01:17:35;1.23;;;0.85;;
10343;SDS011;5217;43.960;10.954;2022-07-10T01:20:04;2.10;;;1.00;;
10343;SDS011;5217;43.960;10.954;2022-07-10T01:22:35;1.35;;;0.73;;
10343;SDS011;5217;43.960;10.954;2022-07-10T01:25:04;1.05;;;0.93;;
10343;SDS011;5217;43.960;10.954;2022-07-10T01:27:34;2.58;;;0.90;;
10343;SDS011;5217;43.960;10.954;2022-07-10T01:30:02;1.08;;;0.98;;
10343;SDS011;5217;43.960;10.954;2022-07-10T01:32:38;0.85;;;0.77;;
10343;SDS011;5217;43.960;10.954;2022-07-10T01:35:07;1.00;;;0.90;;
10343;SDS011;5217;43.960;10.954;2022-07-10T01:37:37;1.52;;;0.82;;
10343;SDS011;5217;43.960;10.954;2022-07-10T01:40:07;1.20;;;1.10;;
10343;SDS011;5217;43.960;10.954;2022-07-10T01:42:36;1.00;;;0.85;;
10343;SDS011;5217;43.960;10.954;2022-07-10T01:45:05;0.98;;;0.95;;
10343;SDS011;5217;43.960;10.954;2022-07-10T01:47:35;1.42;;;1.00;;
10343;SDS011;5217;43.960;10.954;2022-07-10T01:50:04;0.93;;;0.90;;
10343;SDS011;5217;43.960;10.954;2022-07-10T01:52:33;1.58;;;1.00;;
10343;SDS011;5217;43.960;10.954;2022-07-10T01:55:03;1.40;;;0.90;;
10343;SDS011;5217;43.960;10.954;2022-07-10T01:57:32;3.22;;;0.90;;
10343;SDS011;5217;43.960;10.954;2022-07-10T02:00:01;0.80;;;0.80;;
10343;SDS011;5217;43.960;10.954;2022-07-10T02:02:30;0.93;;;0.93;;
10343;SDS011;5217;43.960;10.954;2022-07-10T02:04:58;0.80;;;0.80;;
10343;SDS011;5217;43.960;10.954;2022-07-10T02:07:26;1.13;;;1.00;;
10343;SDS011;5217;43.960;10.954;2022-07-10T02:09:54;1.00;;;0.90;;
10343;SDS011;5217;43.960;10.954;2022-07-10T02:12:24;1.15;;;1.05;;
10343;SDS011;5217;43.960;10.954;2022-07-10T02:14:52;1.20;;;1.10;;
10343;SDS011;5217;43.960;10.954;2022-07-10T02:17:25;1.50;;;0.95;;
10343;SDS011;5217;43.960;10.954;2022-07-10T02:19:53;1.90;;;1.00;;
10343;SDS011;5217;43.960;10.954;2022-07-10T02:22:21;1.17;;;1.00;;
10343;SDS011;5217;43.960;10.954;2022-07-10T02:24:50;0.80;;;0.80;;
10343;SDS011;5217;43.960;10.954;2022-07-10T02:27:19;1.00;;;0.90;;
10343;SDS011;5217;43.960;10.954;2022-07-10T02:29:50;1.27;;;1.02;;
10343;SDS011;5217;43.960;10.954;2022-07-10T02:32:19;1.30;;;1.00;;
10343;SDS011;5217;43.960;10.954;2022-07-10T02:34:48;1.00;;;0.90;;
10343;SDS011;5217;43.960;10.954;2022-07-10T02:37:17;1.70;;;0.98;;
10343;SDS011;5217;43.960;10.954;2022-07-10T02:39:45;1.70;;;0.90;;
10343;SDS011;5217;43.960;10.954;2022-07-10T02:42:13;1.77;;;1.02;;
10343;SDS011;5217;43.960;10.954;2022-07-10T02:44:42;1.45;;;0.90;;
10343;SDS011;5217;43.960;10.954;2022-07-10T02:47:12;2.38;;;0.80;;
10343;SDS011;5217;43.960;10.954;2022-07-10T02:49:41;1.35;;;1.10;;
10343;SDS011;5217;43.960;10.954;2022-07-10T02:52:09;0.98;;;0.93;;
10343;SDS011;5217;43.960;10.954;2022-07-10T02:54:38;0.98;;;0.90;;
10343;SDS011;5217;43.960;10.954;2022-07-10T02:57:06;0.90;;;0.90;;
10343;SDS011;5217;43.960;10.954;2022-07-10T02:59:35;1.00;;;0.90;;
10343;SDS011;5217;43.960;10.954;2022-07-10T03:02:03;1.13;;;1.02;;
10343;SDS011;5217;43.960;10.954;2022-07-10T03:04:34;1.42;;;1.00;;
10343;SDS011;5217;43.960;10.954;2022-07-10T03:07:02;1.25;;;1.08;;
10343;SDS011;5217;43.960;10.954;2022-07-10T03:09:31;1.30;;;1.00;;
10343;SDS011;5217;43.960;10.954;2022-07-10T03:12:00;2.45;;;0.90;;
10343;SDS011;5217;43.960;10.954;2022-07-10T03:14:28;1.27;;;1.00;;
10343;SDS011;5217;43.960;10.954;2022-07-10T03:16:57;1.15;;;1.05;;
10343;SDS011;5217;43.960;10.954;2022-07-10T03:19:25;0.88;;;0.88;;
10343;SDS011;5217;43.960;10.954;2022-07-10T03:21:55;1.08;;;0.93;;
10343;SDS011;5217;43.960;10.954;2022-07-10T03:24:23;0.93;;;0.80;;
10343;SDS011;5217;43.960;10.954;2022-07-10T03:26:52;1.17;;;1.08;;
10343;SDS011;5217;43.960;10.954;2022-07-10T03:29:20;2.38;;;0.98;;
10343;SDS011;5217;43.960;10.954;2022-07-10T03:31:49;0.75;;;0.75;;
10343;SDS011;5217;43.960;10.954;2022-07-10T03:34:17;1.63;;;0.98;;
10343;SDS011;5217;43.960;10.954;2022-07-10T03:36:46;1.38;;;0.90;;
10343;SDS011;5217;43.960;10.954;2022-07-10T03:39:15;1.02;;;0.90;;
10343;SDS011;5217;43.960;10.954;2022-07-10T03:41:44;1.77;;;1.10;;
10343;SDS011;5217;43.960;10.954;2022-07-10T03:44:13;1.00;;;0.90;;
10343;SDS011;5217;43.960;10.954;2022-07-10T03:46:42;2.38;;;0.85;;
10343;SDS011;5217;43.960;10.954;2022-07-10T03:49:10;0.93;;;0.90;;
10343;SDS011;5217;43.960;10.954;2022-07-10T03:51:38;1.20;;;0.88;;
10343;SDS011;5217;43.960;10.954;2022-07-10T03:54:07;0.90;;;0.90;;
10343;SDS011;5217;43.960;10.954;2022-07-10T03:56:37;0.82;;;0.80;;
10343;SDS011;5217;43.960;10.954;2022-07-10T03:59:22;1.35;;;0.90;;
10343;SDS011;5217;43.960;10.954;2022-07-10T04:01:51;1.38;;;1.10;;
10343;SDS011;5217;43.960;10.954;2022-07-10T04:04:20;1.25;;;0.98;;
10343;SDS011;5217;43.960;10.954;2022-07-10T04:06:48;1.33;;;1.00;;
10343;SDS011;5217;43.960;10.954;2022-07-10T04:09:17;1.40;;;0.90;;
10343;SDS011;5217;43.960;10.954;2022-07-10T04:11:47;4.38;;;1.00;;
10343;SDS011;5217;43.960;10.954;2022-07-10T04:14:15;5.45;;;1.40;;
10343;SDS011;5217;43.960;10.954;2022-07-10T04:16:44;12.35;;;1.80;;
10343;SDS011;5217;43.960;10.954;2022-07-10T04:19:12;19.95;;;2.15;;
10343;SDS011;5217;43.960;10.954;2022-07-10T04:21:41;11.45;;;1.70;;
10343;SDS011;5217;43.960;10.954;2022-07-10T04:24:10;1.95;;;1.17;;
10343;SDS011;5217;43.960;10.954;2022-07-10T04:26:38;2.47;;;1.02;;
10343;SDS011;5217;43.960;10.954;2022-07-10T04:29:08;1.15;;;1.05;;
10343;SDS011;5217;43.960;10.954;2022-07-10T04:31:36;0.93;;;0.90;;
10343;SDS011;5217;43.960;10.954;2022-07-10T04:34:05;1.20;;;1.00;;
10343;SDS011;5217;43.960;10.954;2022-07-10T04:36:34;2.28;;;1.20;;
10343;SDS011;5217;43.960;10.954;2022-07-10T04:39:02;1.40;;;1.27;;
10343;SDS011;5217;43.960;10.954;2022-07-10T04:41:31;1.63;;;1.20;;
10343;SDS011;5217;43.960;10.954;2022-07-10T04:43:59;3.75;;;1.25;;
10343;SDS011;5217;43.960;10.954;2022-07-10T04:46:29;4.10;;;1.00;;
10343;SDS011;5217;43.960;10.954;2022-07-10T04:48:58;2.08;;;1.30;;
10343;SDS011;5217;43.960;10.954;2022-07-10T04:51:26;1.40;;;0.90;;
10343;SDS011;5217;43.960;10.954;2022-07-10T04:53:54;0.98;;;0.90;;
10343;SDS011;5217;43.960;10.954;2022-07-10T04:56:23;1.20;;;1.10;;
10343;SDS011;5217;43.960;10.954;2022-07-10T04:58:51;0.93;;;0.93;;
10343;SDS011;5217;43.960;10.954;2022-07-10T05:01:19;1.15;;;1.05;;
10343;SDS011;5217;43.960;10.954;2022-07-10T05:03:49;1.00;;;0.90;;
10343;SDS011;5217;43.960;10.954;2022-07-10T05:06:18;2.92;;;1.10;;
10343;SDS011;5217;43.960;10.954;2022-07-10T05:08:46;1.27;;;1.10;;
10343;SDS011;5217;43.960;10.954;2022-07-10T05:11:19;1.25;;;0.98;;
10343;SDS011;5217;43.960;10.954;2022-07-10T05:13:48;0.90;;;0.90;;
10343;SDS011;5217;43.960;10.954;2022-07-10T05:16:16;1.10;;;1.00;;
10343;SDS011;5217;43.960;10.954;2022-07-10T05:18:46;1.20;;;1.10;;
10343;SDS011;5217;43.960;10.954;2022-07-10T05:21:16;1.20;;;0.93;;
10343;SDS011;5217;43.960;10.954;2022-07-10T05:23:45;1.50;;;1.15;;
10343;SDS011;5217;43.960;10.954;2022-07-10T05:26:13;1.23;;;0.98;;
10343;SDS011;5217;43.960;10.954;2022-07-10T05:28:42;1.20;;;1.10;;
10343;SDS011;5217;43.960;10.954;2022-07-10T05:31:10;2.03;;;1.00;;
10343;SDS011;5217;43.960;10.954;2022-07-10T05:33:39;1.60;;;1.20;;
10343;SDS011;5217;43.960;10.954;2022-07-10T05:36:08;1.60;;;0.90;;
10343;SDS011;5217;43.960;10.954;2022-07-10T05:38:38;1.17;;;1.08;;
10343;SDS011;5217;43.960;10.954;2022-07-10T05:41:07;1.08;;;0.95;;
10343;SDS011;5217;43.960;10.954;2022-07-10T05:43:35;0.98;;;0.98;;
10343;SDS011;5217;43.960;10.954;2022-07-10T05:46:04;2.63;;;1.10;;
10343;SDS011;5217;43.960;10.954;2022-07-10T05:48:32;1.20;;;1.10;;
10343;SDS011;5217;43.960;10.954;2022-07-10T05:51:01;1.40;;;1.10;;
10343;SDS011;5217;43.960;10.954;2022-07-10T05:53:51;1.05;;;1.00;;
10343;SDS011;5217;43.960;10.954;2022-07-10T05:56:20;1.65;;;0.95;;
10343;SDS011;5217;43.960;10.954;2022-07-10T05:58:48;1.10;;;1.00;;
10343;SDS011;5217;43.960;10.954;2022-07-10T06:01:17;1.13;;;1.02;;
10343;SDS011;5217;43.960;10.954;2022-07-10T06:03:45;0.80;;;0.80;;
10343;SDS011;5217;43.960;10.954;2022-07-10T06:06:14;2.03;;;1.15;;
10343;SDS011;5217;43.960;10.954;2022-07-10T06:08:42;1.23;;;1.10;;
10343;SDS011;5217;43.960;10.954;2022-07-10T06:11:13;2.15;;;1.15;;
10343;SDS011;5217;43.960;10.954;2022-07-10T06:13:42;1.25;;;1.00;;
10343;SDS011;5217;43.960;10.954;2022-07-10T06:16:11;1.40;;;1.10;;
10343;SDS011;5217;43.960;10.954;2022-07-10T06:18:39;4.35;;;1.20;;
10343;SDS011;5217;43.960;10.954;2022-07-10T06:21:08;1.85;;;1.00;;
10343;SDS011;5217;43.960;10.954;2022-07-10T06:23:37;2.38;;;1.10;;
10343;SDS011;5217;43.960;10.954;2022-07-10T06:26:05;0.82;;;0.82;;
10343;SDS011;5217;43.960;10.954;2022-07-10T06:28:35;1.83;;;1.10;;
10343;SDS011;5217;43.960;10.954;2022-07-10T06:31:06;2.85;;;1.20;;
10343;SDS011;5217;43.960;10.954;2022-07-10T06:33:34;1.13;;;1.02;;
10343;SDS011;5217;43.960;10.954;2022-07-10T06:36:03;2.35;;;1.25;;
10343;SDS011;5217;43.960;10.954;2022-07-10T06:38:32;1.10;;;1.00;;
10343;SDS011;5217;43.960;10.954;2022-07-10T06:41:01;2.05;;;1.25;;
10343;SDS011;5217;43.960;10.954;2022-07-10T06:43:30;1.30;;;1.08;;
10343;SDS011;5217;43.960;10.954;2022-07-10T06:46:00;4.15;;;1.38;;
10343;SDS011;5217;43.960;10.954;2022-07-10T06:48:28;3.45;;;1.23;;
10343;SDS011;5217;43.960;10.954;2022-07-10T06:50:56;1.40;;;1.30;;
10343;SDS011;5217;43.960;10.954;2022-07-10T06:53:24;1.20;;;1.10;;
10343;SDS011;5217;43.960;10.954;2022-07-10T06:55:53;1.30;;;1.20;;
10343;SDS011;5217;43.960;10.954;2022-07-10T06:58:22;2.25;;;1.20;;
10343;SDS011;5217;43.960;10.954;2022-07-10T07:00:50;1.23;;;1.13;;
10343;SDS011;5217;43.960;10.954;2022-07-10T07:03:20;1.40;;;1.20;;
10343;SDS011;5217;43.960;10.954;2022-07-10T07:05:49;2.35;;;1.30;;
10343;SDS011;5217;43.960;10.954;2022-07-10T07:08:17;3.50;;;1.25;;
10343;SDS011;5217;43.960;10.954;2022-07-10T07:10:46;1.58;;;1.20;;
10343;SDS011;5217;43.960;10.954;2022-07-10T07:13:14;1.83;;;1.20;;
10343;SDS011;5217;43.960;10.954;2022-07-10T07:15:42;1.92;;;1.35;;
10343;SDS011;5217;43.960;10.954;2022-07-10T07:18:17;1.75;;;1.40;;
10343;SDS011;5217;43.960;10.954;2022-07-10T07:20:49;3.30;;;1.27;;
10343;SDS011;5217;43.960;10.954;2022-07-10T07:23:34;1.15;;;1.05;;
10343;SDS011;5217;43.960;10.954;2022-07-10T07:26:03;1.20;;;1.10;;
10343;SDS011;5217;43.960;10.954;2022-07-10T07:28:31;1.30;;;1.20;;
10343;SDS011;5217;43.960;10.954;2022-07-10T07:31:00;1.50;;;1.02;;
10343;SDS011;5217;43.960;10.954;2022-07-10T07:33:28;1.88;;;1.30;;
10343;SDS011;5217;43.960;10.954;2022-07-10T07:35:58;1.48;;;1.38;;
10343;SDS011;5217;43.960;10.954;2022-07-10T07:38:27;1.60;;;1.25;;
10343;SDS011;5217;43.960;10.954;2022-07-10T07:40:55;3.25;;;1.40;;
10343;SDS011;5217;43.960;10.954;2022-07-10T07:43:23;2.13;;;1.35;;
10343;SDS011;5217;43.960;10.954;2022-07-10T07:45:52;2.88;;;1.33;;
10343;SDS011;5217;43.960;10.954;2022-07-10T07:48:20;1.52;;;1.30;;
10343;SDS011;5217;43.960;10.954;2022-07-10T07:50:49;2.45;;;1.30;;
10343;SDS011;5217;43.960;10.954;2022-07-10T07:53:18;1.85;;;1.40;;
10343;SDS011;5217;43.960;10.954;2022-07-10T07:55:47;2.67;;;1.42;;
10343;SDS011;5217;43.960;10.954;2022-07-10T07:58:15;1.23;;;1.13;;
10343;SDS011;5217;43.960;10.954;2022-07-10T08:00:44;2.75;;;1.52;;
10343;SDS011;5217;43.960;10.954;2022-07-10T08:03:12;1.42;;;1.33;;
10343;SDS011;5217;43.960;10.954;2022-07-10T08:05:42;2.55;;;1.30;;
10343;SDS011;5217;43.960;10.954;2022-07-10T08:08:10;2.80;;;1.20;;
10343;SDS011;5217;43.960;10.954;2022-07-10T08:10:40;1.48;;;1.23;;
10343;SDS011;5217;43.960;10.954;2022-07-10T08:13:10;1.33;;;1.10;;
10343;SDS011;5217;43.960;10.954;2022-07-10T08:15:39;3.78;;;1.50;;
10343;SDS011;5217;43.960;10.954;2022-07-10T08:18:08;3.92;;;1.20;;
10343;SDS011;5217;43.960;10.954;2022-07-10T08:20:36;2.13;;;1.35;;
10343;SDS011;5217;43.960;10.954;2022-07-10T08:23:05;1.35;;;1.25;;
10343;SDS011;5217;43.960;10.954;2022-07-10T08:25:33;1.60;;;1.10;;
10343;SDS011;5217;43.960;10.954;2022-07-10T08:28:03;2.03;;;1.10;;
10343;SDS011;5217;43.960;10.954;2022-07-10T08:30:33;1.77;;;1.10;;
10343;SDS011;5217;43.960;10.954;2022-07-10T08:33:01;2.83;;;1.30;;
10343;SDS011;5217;43.960;10.954;2022-07-10T08:35:30;1.77;;;1.23;;
10343;SDS011;5217;43.960;10.954;2022-07-10T08:37:59;1.55;;;0.90;;
10343;SDS011;5217;43.960;10.954;2022-07-10T08:40:30;0.90;;;0.90;;
10343;SDS011;5217;43.960;10.954;2022-07-10T08:43:04;1.42;;;0.93;;
10343;SDS011;5217;43.960;10.954;2022-07-10T08:45:33;4.38;;;1.13;;
10343;SDS011;5217;43.960;10.954;2022-07-10T08:48:03;1.02;;;0.93;;
10343;SDS011;5217;43.960;10.954;2022-07-10T08:50:37;1.13;;;0.90;;
10343;SDS011;5217;43.960;10.954;2022-07-10T08:53:12;1.80;;;1.20;;
10343;SDS011;5217;43.960;10.954;2022-07-10T08:55:44;2.33;;;1.00;;
10343;SDS011;5217;43.960;10.954;2022-07-10T08:58:14;2.20;;;1.00;;
10343;SDS011;5217;43.960;10.954;2022-07-10T09:00:43;2.75;;;0.80;;
10343;SDS011;5217;43.960;10.954;2022-07-10T09:03:12;1.65;;;1.10;;
10343;SDS011;5217;43.960;10.954;2022-07-10T09:05:40;0.88;;;0.88;;
10343;SDS011;5217;43.960;10.954;2022-07-10T09:08:20;2.28;;;1.08;;
10343;SDS011;5217;43.960;10.954;2022-07-10T09:10:49;1.08;;;0.98;;
10343;SDS011;5217;43.960;10.954;2022-07-10T09:13:19;2.22;;;0.80;;
10343;SDS011;5217;43.960;10.954;2022-07-10T09:15:50;1.10;;;1.00;;
10343;SDS011;5217;43.960;10.954;2022-07-10T09:18:21;1.13;;;1.00;;
10343;SDS011;5217;43.960;10.954;2022-07-10T09:20:52;1.48;;;1.10;;
10343;SDS011;5217;43.960;10.954;2022-07-10T09:23:22;0.90;;;0.90;;
10343;SDS011;5217;43.960;10.954;2022-07-10T09:25:52;1.95;;;0.88;;
10343;SDS011;5217;43.960;10.954;2022-07-10T09:28:22;0.95;;;0.80;;
10343;SDS011;5217;43.960;10.954;2022-07-10T09:30:51;1.20;;;1.10;;
10343;SDS011;5217;43.960;10.954;2022-07-10T09:33:20;1.50;;;1.00;;
10343;SDS011;5217;43.960;10.954;2022-07-10T09:35:56;1.10;;;1.00;;
10343;SDS011;5217;43.960;10.954;2022-07-10T09:41:27;1.20;;;1.00;;
10343;SDS011;5217;43.960;10.954;2022-07-10T09:43:58;1.17;;;0.90;;
10343;SDS011;5217;43.960;10.954;2022-07-10T09:46:28;1.10;;;1.00;;
10343;SDS011;5217;43.960;10.954;2022-07-10T09:49:03;0.80;;;0.80;;
10343;SDS011;5217;43.960;10.954;2022-07-10T09:51:34;0.90;;;0.88;;
10343;SDS011;5217;43.960;10.954;2022-07-10T09:54:12;1.77;;;1.05;;
10343;SDS011;5217;43.960;10.954;2022-07-10T09:56:42;2.50;;;0.90;;
10343;SDS011;5217;43.960;10.954;2022-07-10T09:59:13;2.67;;;1.00;;
10343;SDS011;5217;43.960;10.954;2022-07-10T10:01:42;0.90;;;0.90;;
10343;SDS011;5217;43.960;10.954;2022-07-10T10:04:13;1.20;;;0.70;;
10343;SDS011;5217;43.960;10.954;2022-07-10T10:06:43;1.95;;;0.90;;
10343;SDS011;5217;43.960;10.954;2022-07-10T10:09:17;1.20;;;0.90;;
10343;SDS011;5217;43.960;10.954;2022-07-10T10:11:51;0.60;;;0.60;;
10343;SDS011;5217;43.960;10.954;2022-07-10T10:14:27;0.80;;;0.80;;
10343;SDS011;5217;43.960;10.954;2022-07-10T10:16:56;1.65;;;1.00;;
10343;SDS011;5217;43.960;10.954;2022-07-10T10:19:26;1.13;;;0.80;;
10343;SDS011;5217;43.960;10.954;2022-07-10T10:22:21;0.80;;;0.80;;
10343;SDS011;5217;43.960;10.954;2022-07-10T10:24:50;0.55;;;0.52;;
10343;SDS011;5217;43.960;10.954;2022-07-10T10:27:19;1.67;;;0.80;;
10343;SDS011;5217;43.960;10.954;2022-07-10T10:29:51;0.80;;;0.80;;
10343;SDS011;5217;43.960;10.954;2022-07-10T10:32:20;0.60;;;0.60;;
10343;SDS011;5217;43.960;10.954;2022-07-10T10:34:49;1.38;;;0.80;;
10343;SDS011;5217;43.960;10.954;2022-07-10T10:37:32;1.13;;;0.93;;
10343;SDS011;5217;43.960;10.954;2022-07-10T10:40:03;0.77;;;0.77;;
10343;SDS011;5217;43.960;10.954;2022-07-10T10:42:34;0.82;;;0.82;;
10343;SDS011;5217;43.960;10.954;2022-07-10T10:45:24;1.10;;;1.00;;
10343;SDS011;5217;43.960;10.954;2022-07-10T10:47:58;0.80;;;0.80;;
10343;SDS011;5217;43.960;10.954;2022-07-10T10:50:48;0.90;;;0.80;;
10343;SDS011;5217;43.960;10.954;2022-07-10T10:53:18;0.70;;;0.70;;
10343;SDS011;5217;43.960;10.954;2022-07-10T10:58:53;0.90;;;0.85;;
10343;SDS011;5217;43.960;10.954;2022-07-10T11:01:26;1.00;;;0.90;;
10343;SDS011;5217;43.960;10.954;2022-07-10T11:06:45;0.93;;;0.93;;
10343;SDS011;5217;43.960;10.954;2022-07-10T11:09:21;0.90;;;0.90;;
10343;SDS011;5217;43.960;10.954;2022-07-10T11:12:00;1.48;;;0.98;;
10343;SDS011;5217;43.960;10.954;2022-07-10T11:14:32;1.23;;;1.00;;
10343;SDS011;5217;43.960;10.954;2022-07-10T11:17:04;1.95;;;0.95;;
10343;SDS011;5217;43.960;10.954;2022-07-10T11:19:33;1.40;;;1.10;;
10343;SDS011;5217;43.960;10.954;2022-07-10T11:22:09;2.55;;;0.90;;
10343;SDS011;5217;43.960;10.954;2022-07-10T11:24:48;1.95;;;1.08;;
10343;SDS011;5217;43.960;10.954;2022-07-10T11:27:29;1.38;;;1.00;;
10343;SDS011;5217;43.960;10.954;2022-07-10T11:30:20;1.00;;;0.90;;
10343;SDS011;5217;43.960;10.954;2022-07-10T11:32:50;0.82;;;0.80;;
10343;SDS011;5217;43.960;10.954;2022-07-10T11:35:18;5.18;;;1.05;;
10343;SDS011;5217;43.960;10.954;2022-07-10T11:37:50;1.40;;;0.80;;
10343;SDS011;5217;43.960;10.954;2022-07-10T11:40:19;0.90;;;0.90;;
10343;SDS011;5217;43.960;10.954;2022-07-10T11:42:49;0.80;;;0.80;;
10343;SDS011;5217;43.960;10.954;2022-07-10T11:48:06;1.13;;;0.93;;
10343;SDS011;5217;43.960;10.954;2022-07-10T11:50:43;1.10;;;0.93;;
10343;SDS011;5217;43.960;10.954;2022-07-10T11:53:12;2.03;;;0.90;;
10343;SDS011;5217;43.960;10.954;2022-07-10T11:55:41;1.10;;;0.90;;
10343;SDS011;5217;43.960;10.954;2022-07-10T11:58:16;1.00;;;0.88;;
10343;SDS011;5217;43.960;10.954;2022-07-10T12:00:56;1.15;;;0.90;;
10343;SDS011;5217;43.960;10.954;2022-07-10T12:03:27;1.15;;;1.00;;
10343;SDS011;5217;43.960;10.954;2022-07-10T12:06:00;1.17;;;1.00;;
10343;SDS011;5217;43.960;10.954;2022-07-10T12:08:30;1.00;;;0.85;;
10343;SDS011;5217;43.960;10.954;2022-07-10T12:11:13;1.92;;;0.90;;
10343;SDS011;5217;43.960;10.954;2022-07-10T12:13:42;0.80;;;0.80;;
10343;SDS011;5217;43.960;10.954;2022-07-10T12:16:10;1.20;;;0.90;;
10343;SDS011;5217;43.960;10.954;2022-07-10T12:18:41;1.58;;;1.00;;
10343;SDS011;5217;43.960;10.954;2022-07-10T12:21:11;0.90;;;0.90;;
10343;SDS011;5217;43.960;10.954;2022-07-10T12:23:41;1.23;;;1.13;;
10343;SDS011;5217;43.960;10.954;2022-07-10T12:26:13;1.00;;;0.90;;
10343;SDS011;5217;43.960;10.954;2022-07-10T12:28:49;2.35;;;1.10;;
10343;SDS011;5217;43.960;10.954;2022-07-10T12:31:20;0.80;;;0.80;;
10343;SDS011;5217;43.960;10.954;2022-07-10T12:33:58;1.08;;;0.90;;
10343;SDS011;5217;43.960;10.954;2022-07-10T12:36:42;0.80;;;0.80;;
10343;SDS011;5217;43.960;10.954;2022-07-10T12:39:12;1.17;;;0.98;;
10343;SDS011;5217;43.960;10.954;2022-07-10T12:41:55;0.98;;;0.90;;
10343;SDS011;5217;43.960;10.954;2022-07-10T12:44:31;1.17;;;1.05;;
10343;SDS011;5217;43.960;10.954;2022-07-10T12:47:05;1.13;;;0.95;;
10343;SDS011;5217;43.960;10.954;2022-07-10T12:49:49;0.90;;;0.90;;
10343;SDS011;5217;43.960;10.954;2022-07-10T12:52:19;1.27;;;1.00;;
10343;SDS011;5217;43.960;10.954;2022-07-10T12:55:06;0.80;;;0.80;;
10343;SDS011;5217;43.960;10.954;2022-07-10T12:57:46;1.35;;;0.90;;
10343;SDS011;5217;43.960;10.954;2022-07-10T13:00:16;0.80;;;0.80;;
10343;SDS011;5217;43.960;10.954;2022-07-10T13:02:47;2.60;;;1.20;;
10343;SDS011;5217;43.960;10.954;2022-07-10T13:05:27;1.10;;;0.90;;
10343;SDS011;5217;43.960;10.954;2022-07-10T13:08:09;1.08;;;1.00;;
10343;SDS011;5217;43.960;10.954;2022-07-10T13:10:39;0.90;;;0.90;;
10343;SDS011;5217;43.960;10.954;2022-07-10T13:13:08;1.17;;;1.00;;
10343;SDS011;5217;43.960;10.954;2022-07-10T13:15:37;1.02;;;0.93;;
10343;SDS011;5217;43.960;10.954;2022-07-10T13:18:12;2.45;;;1.00;;
10343;SDS011;5217;43.960;10.954;2022-07-10T13:20:43;2.40;;;0.85;;
10343;SDS011;5217;43.960;10.954;2022-07-10T13:23:12;1.25;;;1.00;;
10343;SDS011;5217;43.960;10.954;2022-07-10T13:25:40;0.88;;;0.88;;
10343;SDS011;5217;43.960;10.954;2022-07-10T13:28:09;0.90;;;0.90;;
10343;SDS011;5217;43.960;10.954;2022-07-10T13:30:39;1.20;;;1.10;;
10343;SDS011;5217;43.960;10.954;2022-07-10T13:33:07;1.00;;;0.90;;
10343;SDS011;5217;43.960;10.954;2022-07-10T13:35:36;4.13;;;0.95;;
10343;SDS011;5217;43.960;10.954;2022-07-10T13:38:06;2.88;;;1.15;;
10343;SDS011;5217;43.960;10.954;2022-07-10T13:40:42;1.20;;;0.90;;
10343;SDS011;5217;43.960;10.954;2022-07-10T13:43:11;1.20;;;1.10;;
10343;SDS011;5217;43.960;10.954;2022-07-10T13:45:39;2.58;;;1.10;;
10343;SDS011;5217;43.960;10.954;2022-07-10T13:48:10;1.73;;;1.05;;
10343;SDS011;5217;43.960;10.954;2022-07-10T13:50:39;1.13;;;1.02;;
10343;SDS011;5217;43.960;10.954;2022-07-10T13:53:09;1.40;;;0.90;;
10343;SDS011;5217;43.960;10.954;2022-07-10T13:55:38;2.55;;;1.13;;
10343;SDS011;5217;43.960;10.954;2022-07-10T13:58:07;1.40;;;1.02;;
10343;SDS011;5217;43.960;10.954;2022-07-10T14:00:36;0.80;;;0.80;;
10343;SDS011;5217;43.960;10.954;2022-07-10T14:03:05;1.00;;;0.90;;
10343;SDS011;5217;43.960;10.954;2022-07-10T14:05:33;0.90;;;0.90;;
10343;SDS011;5217;43.960;10.954;2022-07-10T14:08:02;1.20;;;1.00;;
10343;SDS011;5217;43.960;10.954;2022-07-10T14:10:32;0.90;;;0.90;;
10343;SDS011;5217;43.960;10.954;2022-07-10T14:13:01;0.90;;;0.85;;
10343;SDS011;5217;43.960;10.954;2022-07-10T14:15:37;1.17;;;1.00;;
10343;SDS011;5217;43.960;10.954;2022-07-10T14:18:07;1.85;;;0.90;;
10343;SDS011;5217;43.960;10.954;2022-07-10T14:20:36;0.90;;;0.90;;
10343;SDS011;5217;43.960;10.954;2022-07-10T14:23:18;1.13;;;1.00;;
10343;SDS011;5217;43.960;10.954;2022-07-10T14:25:48;1.45;;;1.02;;
10343;SDS011;5217;43.960;10.954;2022-07-10T14:28:16;1.00;;;0.93;;
10343;SDS011;5217;43.960;10.954;2022-07-10T14:30:45;1.20;;;1.10;;
10343;SDS011;5217;43.960;10.954;2022-07-10T14:33:17;1.25;;;0.95;;
10343;SDS011;5217;43.960;10.954;2022-07-10T14:35:45;1.65;;;1.08;;
10343;SDS011;5217;43.960;10.954;2022-07-10T14:38:14;3.03;;;1.20;;
10343;SDS011;5217;43.960;10.954;2022-07-10T14:40:42;0.95;;;0.90;;
10343;SDS011;5217;43.960;10.954;2022-07-10T14:43:12;1.00;;;0.93;;
10343;SDS011;5217;43.960;10.954;2022-07-10T14:45:41;1.00;;;0.93;;
10343;SDS011;5217;43.960;10.954;2022-07-10T14:48:19;1.15;;;1.00;;
10343;SDS011;5217;43.960;10.954;2022-07-10T14:50:47;1.10;;;1.00;;
10343;SDS011;5217;43.960;10.954;2022-07-10T14:53:15;1.35;;;1.00;;
10343;SDS011;5217;43.960;10.954;2022-07-10T14:55:44;1.27;;;1.00;;
10343;SDS011;5217;43.960;10.954;2022-07-10T14:58:14;0.80;;;0.80;;
10343;SDS011;5217;43.960;10.954;2022-07-10T15:00:43;0.90;;;0.90;;
10343;SDS011;5217;43.960;10.954;2022-07-10T15:03:11;1.42;;;1.00;;
10343;SDS011;5217;43.960;10.954;2022-07-10T15:05:40;2.00;;;1.25;;
10343;SDS011;5217;43.960;10.954;2022-07-10T15:08:09;1.08;;;0.98;;
10343;SDS011;5217;43.960;10.954;2022-07-10T15:10:45;2.38;;;1.20;;
10343;SDS011;5217;43.960;10.954;2022-07-10T15:13:15;2.05;;;1.23;;
10343;SDS011;5217;43.960;10.954;2022-07-10T15:15:43;1.20;;;1.10;;
10343;SDS011;5217;43.960;10.954;2022-07-10T15:18:14;1.95;;;1.20;;